Darstellungsparameter: Aktuell verwendete Einstellungen:
Skalierung der Graphiken ... ?
xyx+y,   Skalierungsfaktor:      Skalierung: Modus: x, Faktor: 1
Darstellungszeitraum ... ?
Vom - - bis: - -   Zeitraum: 19.09.2018 - 19.09.2018
Min/Max/Avg-Anzeige ... ?
Zeige MMA aktuell
Zeige MMA Monat
Zeige MMA alles
Zeige --A aktuell
Zeige --A Monat
Zeige --A alles
Keine MMA-Anzeige
MMA:
Keine MMA-Graphiken
MMA-Basis: 19.09.2018 - 19.09.2018
Quicknavigation für Darstellung... ?
Tage:      1T, 2T, 3T, 5T -1T -2T -3T -5T +1T +2T +3T +5T
Wochen: 1W, 2W, 3W -1W -2W -3W +1W +2W +3W
Monate: 1M, 3M, 6M -1M -3M -6M +1M +3M +6M
Jahre:    1J, 3J, 5J, 10J -1J -3J -5J -10J +1J +3J +5J +10J
Nutze für die Darstellung ... ?
Originaldaten oder Mittelwerte auf ...
Stundenbasis Tagesbasis Wochenbasis
Monatsbasis Jahresbasis      Datenbasis: Original-Daten
Darstellen als:
Statistik (Auto) Statistik J:M      Darstellung:
Zur Graphik,    zurück zur Übersicht aller Sensoren.
 
Tabellarische Datenbersicht: ?
 
Sensor: Nr:Datum:Temp:Abs-Feuchte:Windchill:Wind:
Aussen-T/F 1 19-09-2018 00:00:00 18.1 C 12.21 g/m*3 18.1 C 0 km/h
2 19-09-2018 00:05:00 18 C 12.13 g/m*3 18 C 0 km/h
3 19-09-2018 00:10:00 17.8 C 11.99 g/m*3 17.8 C 0 km/h
4 19-09-2018 00:15:00 17.8 C 11.99 g/m*3 17.8 C 0 km/h
5 19-09-2018 00:20:00 17.7 C 11.92 g/m*3 17.7 C 0 km/h
6 19-09-2018 00:25:00 17.6 C 12 g/m*3 17.6 C 0 km/h
7 19-09-2018 00:30:00 17.6 C 11.85 g/m*3 17.6 C 0 km/h
8 19-09-2018 00:35:00 17.6 C 11.85 g/m*3 17.6 C 1.6 km/h
9 19-09-2018 00:40:00 17.6 C 12 g/m*3 17.6 C 0 km/h
10 19-09-2018 00:45:00 17.6 C 12 g/m*3 17.6 C 0 km/h
11 19-09-2018 00:50:00 17.7 C 12.07 g/m*3 17.7 C 0 km/h
12 19-09-2018 00:55:00 17.8 C 11.99 g/m*3 17.8 C 0 km/h
13 19-09-2018 01:00:00 17.9 C 12.06 g/m*3 17.9 C 0 km/h
14 19-09-2018 01:05:00 17.8 C 11.99 g/m*3 17.8 C 0 km/h
15 19-09-2018 01:10:00 17.7 C 11.77 g/m*3 17.7 C 0 km/h
16 19-09-2018 01:15:00 17.6 C 11.85 g/m*3 17.6 C 0 km/h
17 19-09-2018 01:20:00 17.4 C 11.71 g/m*3 17.4 C 0 km/h
18 19-09-2018 01:25:00 17.3 C 11.79 g/m*3 17.3 C 0 km/h
19 19-09-2018 01:30:00 17.2 C 11.72 g/m*3 17.2 C 0 km/h
20 19-09-2018 01:35:00 17.1 C 11.65 g/m*3 17.1 C 0 km/h
21 19-09-2018 01:40:00 17.1 C 11.79 g/m*3 17.1 C 3.2 km/h
22 19-09-2018 01:45:00 17.1 C 11.65 g/m*3 17.1 C 0 km/h
23 19-09-2018 01:50:00 17 C 11.72 g/m*3 17 C 0 km/h
24 19-09-2018 01:55:00 16.8 C 11.58 g/m*3 16.8 C 0 km/h
25 19-09-2018 02:00:00 16.8 C 11.58 g/m*3 16.8 C 0 km/h
Sensor: Nr:Datum:Temp:Abs-Feuchte:Windchill:Wind:
Aussen-T/F 26 19-09-2018 02:05:00 16.8 C 11.58 g/m*3 16.8 C 0 km/h
27 19-09-2018 02:10:00 16.8 C 11.58 g/m*3 16.8 C 0 km/h
28 19-09-2018 02:15:00 16.8 C 11.58 g/m*3 16.8 C 0 km/h
29 19-09-2018 02:20:00 16.8 C 11.72 g/m*3 16.8 C 0 km/h
30 19-09-2018 02:25:00 16.7 C 11.65 g/m*3 16.7 C 0 km/h
31 19-09-2018 02:30:00 16.7 C 11.65 g/m*3 16.7 C 0 km/h
32 19-09-2018 02:35:00 16.7 C 11.8 g/m*3 16.7 C 0 km/h
33 19-09-2018 02:40:00 16.6 C 11.72 g/m*3 16.6 C 0 km/h
34 19-09-2018 02:45:00 16.6 C 11.72 g/m*3 16.6 C 0 km/h
35 19-09-2018 02:50:00 16.6 C 11.72 g/m*3 16.6 C 0 km/h
36 19-09-2018 02:55:00 16.6 C 11.72 g/m*3 16.6 C 0 km/h
37 19-09-2018 03:00:00 16.6 C 11.72 g/m*3 16.6 C 0 km/h
38 19-09-2018 03:05:00 16.6 C 11.58 g/m*3 16.6 C 0 km/h
39 19-09-2018 03:10:00 16.7 C 11.65 g/m*3 16.7 C 4.8 km/h
40 19-09-2018 03:15:00 16.6 C 11.58 g/m*3 16.6 C 0 km/h
41 19-09-2018 03:20:00 16.6 C 11.58 g/m*3 16.6 C 4.8 km/h
42 19-09-2018 03:25:00 16.6 C 11.72 g/m*3 16.6 C 0 km/h
43 19-09-2018 03:30:00 16.5 C 11.51 g/m*3 16.5 C 0 km/h
44 19-09-2018 03:35:00 16.4 C 11.45 g/m*3 16.4 C 1.6 km/h
45 19-09-2018 03:40:00 16.4 C 11.45 g/m*3 16.4 C 0 km/h
46 19-09-2018 03:45:00 16.3 C 11.38 g/m*3 16.3 C 0 km/h
47 19-09-2018 03:50:00 16.3 C 11.52 g/m*3 16.3 C 0 km/h
48 19-09-2018 03:55:00 16.3 C 11.52 g/m*3 16.3 C 0 km/h
49 19-09-2018 04:00:00 16.3 C 11.52 g/m*3 16.3 C 0 km/h
50 19-09-2018 04:05:00 16.3 C 11.52 g/m*3 16.3 C 0 km/h
Sensor: Nr:Datum:Temp:Abs-Feuchte:Windchill:Wind:
Aussen-T/F 51 19-09-2018 04:10:00 16.3 C 11.52 g/m*3 16.3 C 0 km/h
52 19-09-2018 04:15:00 16.2 C 11.45 g/m*3 16.2 C 0 km/h
53 19-09-2018 04:20:00 16.2 C 11.45 g/m*3 16.2 C 0 km/h
54 19-09-2018 04:25:00 16.2 C 11.45 g/m*3 16.2 C 0 km/h
55 19-09-2018 04:30:00 16.1 C 11.38 g/m*3 16.1 C 0 km/h
56 19-09-2018 04:35:00 16 C 11.44 g/m*3 16 C 0 km/h
57 19-09-2018 04:40:00 15.9 C 11.38 g/m*3 15.9 C 0 km/h
58 19-09-2018 04:45:00 15.9 C 11.38 g/m*3 15.9 C 0 km/h
59 19-09-2018 04:50:00 15.8 C 11.31 g/m*3 15.8 C 0 km/h
60 19-09-2018 04:55:00 15.8 C 11.31 g/m*3 15.8 C 0 km/h
61 19-09-2018 05:00:00 15.7 C 11.37 g/m*3 15.7 C 0 km/h
62 19-09-2018 05:05:00 15.6 C 11.3 g/m*3 15.6 C 0 km/h
63 19-09-2018 05:10:00 15.5 C 11.37 g/m*3 15.5 C 0 km/h
64 19-09-2018 05:15:00 15.4 C 11.3 g/m*3 15.4 C 0 km/h
65 19-09-2018 05:20:00 15.4 C 11.3 g/m*3 15.4 C 0 km/h
66 19-09-2018 05:25:00 15.3 C 11.23 g/m*3 15.3 C 0 km/h
67 19-09-2018 05:30:00 15.3 C 11.36 g/m*3 15.3 C 0 km/h
68 19-09-2018 05:35:00 15.3 C 11.49 g/m*3 15.3 C 0 km/h
69 19-09-2018 05:40:00 15.4 C 11.43 g/m*3 15.4 C 3.2 km/h
70 19-09-2018 05:45:00 15.4 C 11.43 g/m*3 15.4 C 0 km/h
71 19-09-2018 05:50:00 15.3 C 11.23 g/m*3 15.3 C 0 km/h
72 19-09-2018 05:55:00 15.2 C 11.16 g/m*3 15.2 C 0 km/h
73 19-09-2018 06:00:00 15.1 C 11.09 g/m*3 15.1 C 0 km/h
74 19-09-2018 06:05:00 15.1 C 11.22 g/m*3 15.1 C 0 km/h
75 19-09-2018 06:10:00 14.9 C 10.96 g/m*3 14.9 C 0 km/h
Sensor: Nr:Datum:Temp:Abs-Feuchte:Windchill:Wind:
Aussen-T/F 76 19-09-2018 06:15:00 14.8 C 11.02 g/m*3 14.8 C 0 km/h
77 19-09-2018 06:20:00 14.6 C 10.89 g/m*3 14.6 C 0 km/h
78 19-09-2018 06:25:00 14.5 C 10.94 g/m*3 14.5 C 0 km/h
79 19-09-2018 06:30:00 14.4 C 10.88 g/m*3 14.4 C 0 km/h
80 19-09-2018 06:35:00 14.3 C 10.81 g/m*3 14.3 C 0 km/h
81 19-09-2018 06:40:00 14.2 C 10.75 g/m*3 14.2 C 0 km/h
82 19-09-2018 06:45:00 14.1 C 10.8 g/m*3 14.1 C 0 km/h
83 19-09-2018 06:50:00 14.1 C 10.8 g/m*3 14.1 C 0 km/h
84 19-09-2018 06:55:00 14 C 10.86 g/m*3 14 C 0 km/h
85 19-09-2018 07:00:00 13.9 C 10.79 g/m*3 13.9 C 0 km/h
86 19-09-2018 07:05:00 13.9 C 10.91 g/m*3 13.9 C 0 km/h
87 19-09-2018 07:10:00 14 C 10.98 g/m*3 14 C 0 km/h
88 19-09-2018 07:15:00 13.9 C 10.79 g/m*3 13.9 C 0 km/h
89 19-09-2018 07:20:00 13.8 C 10.72 g/m*3 13.8 C 0 km/h
90 19-09-2018 07:25:00 13.8 C 10.84 g/m*3 13.8 C 0 km/h
91 19-09-2018 07:30:00 13.8 C 10.84 g/m*3 13.8 C 0 km/h
92 19-09-2018 07:35:00 13.9 C 10.91 g/m*3 13.9 C 0 km/h
93 19-09-2018 07:40:00 13.9 C 10.91 g/m*3 13.9 C 0 km/h
94 19-09-2018 07:45:00 13.8 C 10.84 g/m*3 13.8 C 0 km/h
95 19-09-2018 07:50:00 13.8 C 10.96 g/m*3 13.8 C 0 km/h
96 19-09-2018 07:55:00 13.9 C 11.03 g/m*3 13.9 C 0 km/h
97 19-09-2018 08:00:00 13.8 C 10.96 g/m*3 13.8 C 0 km/h
98 19-09-2018 08:05:00 13.9 C 11.03 g/m*3 13.9 C 0 km/h
99 19-09-2018 08:10:00 14 C 11.1 g/m*3 14 C 0 km/h
100 19-09-2018 08:15:00 14.1 C 11.17 g/m*3 14.1 C 0 km/h
Sensor: Nr:Datum:Temp:Abs-Feuchte:Windchill:Wind:
Aussen-T/F 101 19-09-2018 08:20:00 14.1 C 11.17 g/m*3 14.1 C 0 km/h
102 19-09-2018 08:25:00 14.1 C 11.17 g/m*3 14.1 C 0 km/h
103 19-09-2018 08:30:00 14.2 C 11.23 g/m*3 14.2 C 0 km/h
104 19-09-2018 08:35:00 14.3 C 11.43 g/m*3 14.3 C 0 km/h
105 19-09-2018 08:40:00 14.4 C 11.5 g/m*3 14.4 C 0 km/h
106 19-09-2018 08:45:00 14.6 C 11.64 g/m*3 14.6 C 0 km/h
107 19-09-2018 08:50:00 14.7 C 11.71 g/m*3 14.7 C 0 km/h
108 19-09-2018 08:55:00 14.8 C 11.65 g/m*3 14.8 C 0 km/h
109 19-09-2018 09:00:00 14.9 C 11.73 g/m*3 14.9 C 0 km/h
110 19-09-2018 09:05:00 14.9 C 11.73 g/m*3 14.9 C 0 km/h
111 19-09-2018 09:10:00 15 C 11.8 g/m*3 15 C 0 km/h
112 19-09-2018 09:15:00 15.1 C 11.87 g/m*3 15.1 C 0 km/h
113 19-09-2018 09:20:00 15.2 C 11.94 g/m*3 15.2 C 0 km/h
114 19-09-2018 09:25:00 15.3 C 12.01 g/m*3 15.3 C 0 km/h
115 19-09-2018 09:30:00 15.4 C 12.09 g/m*3 15.4 C 0 km/h
116 19-09-2018 09:35:00 15.6 C 12.23 g/m*3 15.6 C 0 km/h
117 19-09-2018 09:40:00 15.7 C 12.31 g/m*3 15.7 C 0 km/h
118 19-09-2018 09:45:00 15.8 C 12.38 g/m*3 15.8 C 0 km/h
119 19-09-2018 09:50:00 15.9 C 12.46 g/m*3 15.9 C 0 km/h
120 19-09-2018 09:55:00 16 C 12.53 g/m*3 16 C 0 km/h
121 19-09-2018 10:00:00 16.2 C 12.69 g/m*3 16.2 C 0 km/h
122 19-09-2018 10:05:00 16.4 C 12.84 g/m*3 16.4 C 0 km/h
123 19-09-2018 10:10:00 16.6 C 13 g/m*3 16.6 C 0 km/h
124 19-09-2018 10:15:00 16.8 C 13.01 g/m*3 16.8 C 0 km/h
125 19-09-2018 10:20:00 17 C 13.17 g/m*3 17 C 0 km/h
Sensor: Nr:Datum:Temp:Abs-Feuchte:Windchill:Wind:
Aussen-T/F 126 19-09-2018 10:25:00 17.2 C 13.33 g/m*3 17.2 C 1.6 km/h
127 19-09-2018 10:30:00 17.5 C 13.27 g/m*3 17.5 C 4.8 km/h
128 19-09-2018 10:35:00 17.9 C 13.44 g/m*3 17.9 C 6.4 km/h
129 19-09-2018 10:40:00 18.3 C 13.6 g/m*3 18.3 C 6.4 km/h
130 19-09-2018 10:45:00 18.6 C 13.53 g/m*3 18.6 C 3.2 km/h
131 19-09-2018 10:50:00 19 C 13.69 g/m*3 19 C 1.6 km/h
132 19-09-2018 10:55:00 19.3 C 13.6 g/m*3 19.3 C 3.2 km/h
133 19-09-2018 11:00:00 19.6 C 13.67 g/m*3 19.6 C 0 km/h
134 19-09-2018 11:05:00 19.9 C 13.74 g/m*3 19.9 C 4.8 km/h
135 19-09-2018 11:10:00 20.2 C 13.81 g/m*3 20.2 C 4.8 km/h
136 19-09-2018 11:15:00 20.4 C 13.62 g/m*3 20.4 C 4.8 km/h
137 19-09-2018 11:20:00 20.7 C 13.86 g/m*3 20.7 C 0 km/h
138 19-09-2018 11:25:00 20.9 C 13.66 g/m*3 20.9 C 4.8 km/h
139 19-09-2018 11:30:00 21.3 C 13.79 g/m*3 21.3 C 9.7 km/h
140 19-09-2018 11:35:00 21.6 C 13.85 g/m*3 21.6 C 9.7 km/h
141 19-09-2018 11:40:00 21.8 C 13.81 g/m*3 21.8 C 3.2 km/h
142 19-09-2018 11:45:00 22.1 C 13.86 g/m*3 22.1 C 9.7 km/h
143 19-09-2018 11:50:00 22.5 C 13.98 g/m*3 22.5 C 14.5 km/h
144 19-09-2018 11:55:00 22.8 C 14.02 g/m*3 22.8 C 11.3 km/h
145 19-09-2018 12:00:00 23 C 13.98 g/m*3 23 C 14.5 km/h
146 19-09-2018 12:05:00 23.2 C 14.14 g/m*3 23.2 C 11.3 km/h
147 19-09-2018 12:10:00 23.2 C 13.93 g/m*3 23.2 C 8.1 km/h
148 19-09-2018 12:15:00 23.3 C 14.01 g/m*3 23.3 C 12.9 km/h
149 19-09-2018 12:20:00 23.6 C 13.82 g/m*3 23.6 C 11.3 km/h
150 19-09-2018 12:25:00 23.8 C 13.98 g/m*3 23.8 C 14.5 km/h
Sensor: Nr:Datum:Temp:Abs-Feuchte:Windchill:Wind:
Aussen-T/F 151 19-09-2018 12:30:00 24 C 13.92 g/m*3 24 C 14.5 km/h
152 19-09-2018 12:35:00 24.2 C 13.64 g/m*3 24.2 C 12.9 km/h
153 19-09-2018 12:40:00 24.2 C 13.64 g/m*3 24.2 C 16.1 km/h
154 19-09-2018 12:45:00 24.3 C 13.5 g/m*3 24.3 C 24.1 km/h
155 19-09-2018 12:50:00 24.4 C 13.58 g/m*3 24.4 C 17.7 km/h
156 19-09-2018 12:55:00 24.6 C 13.73 g/m*3 24.6 C 12.9 km/h
157 19-09-2018 13:00:00 24.7 C 13.58 g/m*3 24.7 C 12.9 km/h
158 19-09-2018 13:05:00 24.8 C 13.66 g/m*3 24.8 C 14.5 km/h
159 19-09-2018 13:10:00 24.9 C 13.51 g/m*3 24.9 C 16.1 km/h
160 19-09-2018 13:15:00 25.1 C 13.66 g/m*3 25.1 C 12.9 km/h
161 19-09-2018 13:20:00 25.2 C 13.5 g/m*3 25.2 C 19.3 km/h
162 19-09-2018 13:25:00 25.3 C 13.58 g/m*3 25.3 C 12.9 km/h
163 19-09-2018 13:30:00 25.4 C 13.42 g/m*3 25.4 C 22.5 km/h
164 19-09-2018 13:35:00 25.6 C 13.57 g/m*3 25.6 C 14.5 km/h
165 19-09-2018 13:40:00 25.7 C 13.41 g/m*3 25.7 C 17.7 km/h
166 19-09-2018 13:45:00 25.7 C 13.41 g/m*3 25.7 C 22.5 km/h
167 19-09-2018 13:50:00 25.8 C 13.24 g/m*3 25.8 C 17.7 km/h
168 19-09-2018 13:55:00 25.9 C 13.32 g/m*3 25.9 C 14.5 km/h
169 19-09-2018 14:00:00 26.2 C 13.29 g/m*3 26.2 C 19.3 km/h
170 19-09-2018 14:05:00 26.3 C 13.37 g/m*3 26.3 C 12.9 km/h
171 19-09-2018 14:10:00 26.4 C 13.19 g/m*3 26.4 C 22.5 km/h
172 19-09-2018 14:15:00 26.6 C 13.34 g/m*3 26.6 C 14.5 km/h
173 19-09-2018 14:20:00 26.7 C 13.42 g/m*3 26.7 C 12.9 km/h
174 19-09-2018 14:25:00 26.9 C 13.31 g/m*3 26.9 C 17.7 km/h
175 19-09-2018 14:30:00 27.1 C 13.2 g/m*3 27.1 C 16.1 km/h
Sensor: Nr:Datum:Temp:Abs-Feuchte:Windchill:Wind:
Aussen-T/F 176 19-09-2018 14:35:00 27.3 C 13.34 g/m*3 27.3 C 22.5 km/h
177 19-09-2018 14:40:00 27.4 C 13.16 g/m*3 27.4 C 14.5 km/h
178 19-09-2018 14:45:00 27.4 C 13.16 g/m*3 27.4 C 16.1 km/h
179 19-09-2018 14:50:00 27.4 C 13.16 g/m*3 27.4 C 11.3 km/h
180 19-09-2018 14:55:00 27.5 C 13.23 g/m*3 27.5 C 17.7 km/h
181 19-09-2018 15:00:00 27.4 C 13.16 g/m*3 27.4 C 17.7 km/h
182 19-09-2018 15:05:00 27.4 C 13.42 g/m*3 27.4 C 19.3 km/h
183 19-09-2018 15:10:00 27.4 C 13.42 g/m*3 27.4 C 17.7 km/h
184 19-09-2018 15:15:00 27.6 C 13.3 g/m*3 27.6 C 17.7 km/h
185 19-09-2018 15:20:00 27.6 C 13.3 g/m*3 27.6 C 14.5 km/h
186 19-09-2018 15:25:00 27.7 C 13.37 g/m*3 27.7 C 17.7 km/h
187 19-09-2018 15:30:00 27.8 C 13.45 g/m*3 27.8 C 14.5 km/h
188 19-09-2018 15:35:00 27.8 C 13.45 g/m*3 27.8 C 16.1 km/h
189 19-09-2018 15:40:00 27.8 C 13.45 g/m*3 27.8 C 14.5 km/h
190 19-09-2018 15:45:00 27.9 C 13.25 g/m*3 27.9 C 14.5 km/h
191 19-09-2018 15:50:00 27.9 C 12.98 g/m*3 27.9 C 19.3 km/h
192 19-09-2018 15:55:00 27.9 C 12.98 g/m*3 27.9 C 19.3 km/h
193 19-09-2018 16:00:00 27.9 C 12.98 g/m*3 27.9 C 17.7 km/h
194 19-09-2018 16:05:00 27.9 C 13.25 g/m*3 27.9 C 22.5 km/h
195 19-09-2018 16:10:00 27.9 C 13.25 g/m*3 27.9 C 16.1 km/h
196 19-09-2018 16:15:00 27.9 C 12.98 g/m*3 27.9 C 19.3 km/h
197 19-09-2018 16:20:00 27.9 C 13.25 g/m*3 27.9 C 11.3 km/h
198 19-09-2018 16:25:00 27.8 C 13.18 g/m*3 27.8 C 9.7 km/h
199 19-09-2018 16:30:00 27.8 C 12.91 g/m*3 27.8 C 19.3 km/h
200 19-09-2018 16:35:00 27.9 C 12.98 g/m*3 27.9 C 12.9 km/h
Sensor: Nr:Datum:Temp:Abs-Feuchte:Windchill:Wind:
Aussen-T/F 201 19-09-2018 16:40:00 28.1 C 13.13 g/m*3 28.1 C 9.7 km/h
202 19-09-2018 16:45:00 28.2 C 13.2 g/m*3 28.2 C 12.9 km/h
203 19-09-2018 16:50:00 28.3 C 12.99 g/m*3 28.3 C 14.5 km/h
204 19-09-2018 16:55:00 28.3 C 12.99 g/m*3 28.3 C 14.5 km/h
205 19-09-2018 17:00:00 28.3 C 12.72 g/m*3 28.3 C 14.5 km/h
206 19-09-2018 17:05:00 28.4 C 13.06 g/m*3 28.4 C 11.3 km/h
207 19-09-2018 17:10:00 28.7 C 12.72 g/m*3 28.7 C 14.5 km/h
208 19-09-2018 17:15:00 28.8 C 13.07 g/m*3 28.8 C 19.3 km/h
209 19-09-2018 17:20:00 28.9 C 12.86 g/m*3 28.9 C 19.3 km/h
210 19-09-2018 17:25:00 29.1 C 13 g/m*3 29.1 C 11.3 km/h
211 19-09-2018 17:30:00 29.2 C 12.78 g/m*3 29.2 C 12.9 km/h
212 19-09-2018 17:35:00 29.3 C 13.14 g/m*3 29.3 C 6.4 km/h
213 19-09-2018 17:40:00 29.3 C 12.85 g/m*3 29.3 C 14.5 km/h
214 19-09-2018 17:45:00 29.2 C 12.78 g/m*3 29.2 C 20.9 km/h
215 19-09-2018 17:50:00 29.1 C 13 g/m*3 29.1 C 14.5 km/h
216 19-09-2018 17:55:00 29.1 C 13 g/m*3 29.1 C 11.3 km/h
217 19-09-2018 18:00:00 29.1 C 13 g/m*3 29.1 C 12.9 km/h
218 19-09-2018 18:05:00 29.1 C 13 g/m*3 29.1 C 9.7 km/h
219 19-09-2018 18:10:00 29.1 C 13 g/m*3 29.1 C 8.1 km/h
220 19-09-2018 18:15:00 29.1 C 13 g/m*3 29.1 C 12.9 km/h
221 19-09-2018 18:20:00 28.8 C 13.07 g/m*3 28.8 C 12.9 km/h
222 19-09-2018 18:25:00 28.6 C 13.21 g/m*3 28.6 C 11.3 km/h
223 19-09-2018 18:30:00 28.6 C 12.93 g/m*3 28.6 C 11.3 km/h
224 19-09-2018 18:35:00 28.5 C 13.14 g/m*3 28.5 C 14.5 km/h
225 19-09-2018 18:40:00 28.4 C 13.06 g/m*3 28.4 C 12.9 km/h
Sensor: Nr:Datum:Temp:Abs-Feuchte:Windchill:Wind:
Aussen-T/F 226 19-09-2018 18:45:00 28.3 C 12.99 g/m*3 28.3 C 9.7 km/h
227 19-09-2018 18:50:00 28.2 C 13.2 g/m*3 28.2 C 17.7 km/h
228 19-09-2018 18:55:00 28.1 C 13.13 g/m*3 28.1 C 4.8 km/h
229 19-09-2018 19:00:00 27.9 C 13.25 g/m*3 27.9 C 12.9 km/h
230 19-09-2018 19:05:00 27.8 C 13.18 g/m*3 27.8 C 16.1 km/h
231 19-09-2018 19:10:00 27.6 C 13.3 g/m*3 27.6 C 6.4 km/h
232 19-09-2018 19:15:00 27.3 C 13.08 g/m*3 27.3 C 12.9 km/h
233 19-09-2018 19:20:00 27 C 13.13 g/m*3 27 C 9.7 km/h
234 19-09-2018 19:25:00 26.7 C 13.16 g/m*3 26.7 C 8.1 km/h
235 19-09-2018 19:30:00 26.4 C 13.19 g/m*3 26.4 C 6.4 km/h
236 19-09-2018 19:35:00 26.1 C 13.22 g/m*3 26.1 C 3.2 km/h
237 19-09-2018 19:40:00 25.8 C 13.24 g/m*3 25.8 C 6.4 km/h
238 19-09-2018 19:45:00 25.5 C 13.26 g/m*3 25.5 C 3.2 km/h
239 19-09-2018 19:50:00 25.2 C 13.27 g/m*3 25.2 C 1.6 km/h
240 19-09-2018 19:55:00 24.9 C 13.28 g/m*3 24.9 C 3.2 km/h
241 19-09-2018 20:00:00 24.7 C 13.35 g/m*3 24.7 C 1.6 km/h
242 19-09-2018 20:05:00 24.4 C 13.35 g/m*3 24.4 C 4.8 km/h
243 19-09-2018 20:10:00 24.2 C 13.2 g/m*3 24.2 C 1.6 km/h
244 19-09-2018 20:15:00 24.1 C 13.35 g/m*3 24.1 C 1.6 km/h
245 19-09-2018 20:20:00 23.8 C 13.34 g/m*3 23.8 C 1.6 km/h
246 19-09-2018 20:25:00 23.7 C 13.26 g/m*3 23.7 C 1.6 km/h
247 19-09-2018 20:30:00 23.6 C 13.19 g/m*3 23.6 C 3.2 km/h
248 19-09-2018 20:35:00 23.5 C 13.32 g/m*3 23.5 C 4.8 km/h
249 19-09-2018 20:40:00 23.3 C 13.38 g/m*3 23.3 C 1.6 km/h
250 19-09-2018 20:45:00 23.2 C 13.31 g/m*3 23.2 C 1.6 km/h
Sensor: Nr:Datum:Temp:Abs-Feuchte:Windchill:Wind:
Aussen-T/F 251 19-09-2018 20:50:00 23.1 C 13.44 g/m*3 23.1 C 0 km/h
252 19-09-2018 20:55:00 23 C 13.36 g/m*3 23 C 1.6 km/h
253 19-09-2018 21:00:00 22.8 C 13.41 g/m*3 22.8 C 0 km/h
254 19-09-2018 21:05:00 22.7 C 13.33 g/m*3 22.7 C 0 km/h
255 19-09-2018 21:10:00 22.5 C 13.38 g/m*3 22.5 C 0 km/h
256 19-09-2018 21:15:00 22.2 C 13.35 g/m*3 22.2 C 0 km/h
257 19-09-2018 21:20:00 22 C 13.2 g/m*3 22 C 0 km/h
258 19-09-2018 21:25:00 21.8 C 13.24 g/m*3 21.8 C 0 km/h
259 19-09-2018 21:30:00 21.6 C 13.28 g/m*3 21.6 C 0 km/h
260 19-09-2018 21:35:00 21.4 C 13.31 g/m*3 21.4 C 0 km/h
261 19-09-2018 21:40:00 21.3 C 13.23 g/m*3 21.3 C 0 km/h
262 19-09-2018 21:45:00 21.1 C 13.27 g/m*3 21.1 C 0 km/h
263 19-09-2018 21:50:00 20.9 C 13.11 g/m*3 20.9 C 0 km/h
264 19-09-2018 21:55:00 20.8 C 13.22 g/m*3 20.8 C 0 km/h
265 19-09-2018 22:00:00 20.7 C 13.14 g/m*3 20.7 C 0 km/h
266 19-09-2018 22:05:00 20.5 C 13.17 g/m*3 20.5 C 0 km/h
267 19-09-2018 22:10:00 20.4 C 13.09 g/m*3 20.4 C 0 km/h
268 19-09-2018 22:15:00 20.3 C 13.19 g/m*3 20.3 C 0 km/h
269 19-09-2018 22:20:00 20.2 C 13.11 g/m*3 20.2 C 0 km/h
270 19-09-2018 22:25:00 20.1 C 13.04 g/m*3 20.1 C 0 km/h
271 19-09-2018 22:30:00 20 C 12.96 g/m*3 20 C 0 km/h
272 19-09-2018 22:35:00 19.8 C 12.81 g/m*3 19.8 C 0 km/h
273 19-09-2018 22:40:00 19.6 C 12.83 g/m*3 19.6 C 0 km/h
274 19-09-2018 22:45:00 19.4 C 12.85 g/m*3 19.4 C 0 km/h
275 19-09-2018 22:50:00 19.2 C 12.86 g/m*3 19.2 C 0 km/h
Sensor: Nr:Datum:Temp:Abs-Feuchte:Windchill:Wind:
Aussen-T/F 276 19-09-2018 22:55:00 19.1 C 12.79 g/m*3 19.1 C 0 km/h
277 19-09-2018 23:00:00 18.9 C 12.8 g/m*3 18.9 C 0 km/h
278 19-09-2018 23:05:00 18.9 C 12.8 g/m*3 18.9 C 0 km/h
279 19-09-2018 23:10:00 18.8 C 12.72 g/m*3 18.8 C 0 km/h
280 19-09-2018 23:15:00 18.8 C 12.72 g/m*3 18.8 C 0 km/h
281 19-09-2018 23:20:00 18.7 C 12.65 g/m*3 18.7 C 0 km/h
282 19-09-2018 23:25:00 18.6 C 12.57 g/m*3 18.6 C 0 km/h
283 19-09-2018 23:30:00 18.4 C 12.58 g/m*3 18.4 C 0 km/h
284 19-09-2018 23:35:00 18.4 C 12.58 g/m*3 18.4 C 0 km/h
285 19-09-2018 23:40:00 18.3 C 12.51 g/m*3 18.3 C 0 km/h
286 19-09-2018 23:45:00 18.2 C 12.43 g/m*3 18.2 C 0 km/h
287 19-09-2018 23:50:00 18.1 C 12.52 g/m*3 18.1 C 0 km/h
288 19-09-2018 23:55:00 17.9 C 12.37 g/m*3 17.9 C 0 km/h

Legende:
   Min
   Max


Maximal/Minimal-Werte vom 19.09.2018 - 19.09.2018

Sensor Min Max Avg
Temp
(Aussen-T/F)
13.8 °C
19-09-2018  07:20:00
29.3 °C
19-09-2018  17:35:00
20.68 °C
Abs-Feuchte
(Aussen-T/F)
10.72 g/m*3
19-09-2018  07:20:00
14.14 g/m*3
19-09-2018  12:05:00
12.47 g/m*3
Windchill
(Aussen-T/F)
13.8 C
19-09-2018  07:20:00
29.3 C
19-09-2018  17:35:00
20.61 C

Die Daten stammen von einer Davis Vantage Pro 2 Wetter-Station und werden unter Linux mit der Software wview2wettercgi und aufbereitet. Alle Angaben erfolgen ohne Gewähr für ihre Vollständigkeit oder Richtigkeit.
Kontakt: Rainer Krienke krienke@uni-koblenz.de . Meine Webseiten an der Uni Koblenz oder privat.
Version: $Revision: 0.78 $